createdAt,value
2023-04-19T00:02:13.365Z,11.30
2023-04-19T00:08:56.311Z,11.30
2023-04-19T00:15:38.786Z,11.30
2023-04-19T00:22:21.114Z,11.40
2023-04-19T00:29:03.441Z,11.50
2023-04-19T00:35:45.920Z,11.50
2023-04-19T00:42:29.050Z,11.40
2023-04-19T00:49:11.377Z,11.30
2023-04-19T00:55:57.418Z,11.10
2023-04-19T01:02:40.287Z,11.10
2023-04-19T01:09:22.838Z,11.10
2023-04-19T01:16:06.682Z,11.10
2023-04-19T01:22:49.050Z,11.00
2023-04-19T01:29:31.337Z,11.00
2023-04-19T01:36:13.633Z,10.90
2023-04-19T01:42:57.285Z,10.80
2023-04-19T01:49:41.233Z,10.70
2023-04-19T01:56:24.286Z,10.70
2023-04-19T02:03:06.813Z,10.80
2023-04-19T02:09:49.236Z,10.80
2023-04-19T02:16:33.763Z,10.80
2023-04-19T02:23:17.608Z,10.80
2023-04-19T02:29:59.954Z,10.70
2023-04-19T02:36:42.295Z,10.70
2023-04-19T02:43:24.959Z,10.70
2023-04-19T02:50:07.806Z,10.60
2023-04-19T02:56:54.534Z,10.60
2023-04-19T03:03:37.115Z,10.50
2023-04-19T03:10:19.669Z,10.30
2023-04-19T03:17:02.550Z,10.50
2023-04-19T03:23:45.713Z,10.50
2023-04-19T03:30:29.562Z,10.50
2023-04-19T03:37:12.151Z,10.40
2023-04-19T03:43:54.987Z,10.30
2023-04-19T03:50:39.713Z,10.20
2023-04-19T03:57:22.140Z,10.10
2023-04-19T04:04:05.628Z,9.80
2023-04-19T04:10:48.239Z,9.70
2023-04-19T04:17:30.988Z,9.60
2023-04-19T04:24:13.855Z,9.50
2023-04-19T04:31:13.171Z,9.40
2023-04-19T04:37:56.747Z,9.40
2023-04-19T04:44:41.423Z,9.50
2023-04-19T04:51:26.131Z,9.50
2023-04-19T04:58:10.563Z,9.60
2023-04-19T05:05:11.299Z,9.70
2023-04-19T05:11:54.401Z,10.00
2023-04-19T05:18:37.234Z,10.10
2023-04-19T05:25:21.365Z,10.20
2023-04-19T05:32:04.357Z,10.20
2023-04-19T05:38:56.118Z,10.20
2023-04-19T05:45:38.815Z,10.30
2023-04-19T05:52:22.294Z,10.40
2023-04-19T05:59:08.580Z,10.40
2023-04-19T06:05:51.212Z,10.40
2023-04-19T06:12:34.003Z,10.60
2023-04-19T06:19:16.688Z,11.10
2023-04-19T06:25:58.995Z,11.50
2023-04-19T06:32:41.420Z,11.70
2023-04-19T06:39:23.775Z,11.70
2023-04-19T06:46:06.755Z,12.00
2023-04-19T06:52:49.266Z,12.30
2023-04-19T06:59:32.185Z,12.80
2023-04-19T07:06:14.533Z,13.60
2023-04-19T07:12:56.849Z,13.50
2023-04-19T07:19:39.120Z,15.70
2023-04-19T07:26:21.440Z,17.50
2023-04-19T07:33:04.983Z,17.10
2023-04-19T07:39:47.338Z,15.40
2023-04-19T07:46:30.140Z,15.40
2023-04-19T07:53:12.623Z,15.90
2023-04-19T07:59:58.000Z,15.90
2023-04-19T08:06:40.383Z,17.30
2023-04-19T08:13:22.831Z,16.70
2023-04-19T08:20:06.880Z,16.90
2023-04-19T08:26:53.657Z,16.50
2023-04-19T08:33:36.323Z,15.30
2023-04-19T08:40:18.799Z,14.80
2023-04-19T08:47:01.396Z,14.20
2023-04-19T08:53:44.619Z,13.60
2023-04-19T09:00:27.065Z,13.80
2023-04-19T09:07:22.188Z,13.90
2023-04-19T09:14:09.042Z,15.10
2023-04-19T09:20:57.152Z,15.00
2023-04-19T09:27:40.633Z,14.70
2023-04-19T09:34:24.008Z,14.50
2023-04-19T09:41:08.347Z,16.30
2023-04-19T09:48:05.889Z,20.10
2023-04-19T09:54:48.947Z,19.30
2023-04-19T10:01:35.788Z,19.10
2023-04-19T10:08:18.652Z,17.30
2023-04-19T10:15:01.073Z,19.00
2023-04-19T10:21:47.118Z,17.50
2023-04-19T10:28:30.930Z,16.40
2023-04-19T10:35:22.452Z,15.40
2023-04-19T10:42:05.163Z,15.00
2023-04-19T10:48:58.687Z,14.70
2023-04-19T10:55:51.183Z,14.60
2023-04-19T11:02:33.749Z,15.30
2023-04-19T11:09:52.657Z,14.80
2023-04-19T11:16:45.679Z,14.20
2023-04-19T11:23:28.598Z,13.70
2023-04-19T11:30:16.763Z,13.40
2023-04-19T11:36:59.132Z,13.20
2023-04-19T11:43:44.995Z,13.10
2023-04-19T11:50:44.564Z,12.90
2023-04-19T11:57:28.777Z,12.40
2023-04-19T12:04:11.896Z,12.40
2023-04-19T12:10:58.746Z,12.20
2023-04-19T12:18:01.872Z,12.20
2023-04-19T12:24:44.424Z,11.90
2023-04-19T12:31:27.246Z,11.90
2023-04-19T12:38:09.591Z,11.80
2023-04-19T12:44:52.123Z,11.90
2023-04-19T12:51:36.013Z,12.00
2023-04-19T12:58:19.056Z,11.90
2023-04-19T13:05:01.910Z,11.50
2023-04-19T13:11:44.631Z,11.60
2023-04-19T13:18:27.144Z,11.60
2023-04-19T13:25:09.624Z,11.60
2023-04-19T13:31:51.912Z,11.80
2023-04-19T13:38:34.264Z,12.10
2023-04-19T13:45:16.593Z,11.90
2023-04-19T13:51:58.922Z,12.20
2023-04-19T13:58:41.257Z,12.40
2023-04-19T14:05:25.501Z,12.60
2023-04-19T14:12:09.237Z,12.80
2023-04-19T14:18:52.307Z,13.70
2023-04-19T14:25:36.678Z,14.00
2023-04-19T14:32:24.898Z,14.00
2023-04-19T14:39:08.847Z,14.00
2023-04-19T14:45:51.785Z,14.40
2023-04-19T14:52:34.683Z,14.80
2023-04-19T14:59:17.125Z,14.10
2023-04-19T15:05:59.898Z,14.00
2023-04-19T15:12:42.313Z,14.30
2023-04-19T15:19:24.667Z,13.90
2023-04-19T15:26:06.987Z,13.50
2023-04-19T15:32:49.319Z,13.80
2023-04-19T15:39:31.740Z,14.10
2023-04-19T15:46:14.635Z,14.10
2023-04-19T15:52:57.182Z,14.00
2023-04-19T15:59:39.463Z,14.00
2023-04-19T16:06:23.029Z,13.80
2023-04-19T16:13:06.021Z,13.50
2023-04-19T16:19:48.302Z,13.30
2023-04-19T16:26:30.614Z,13.40
2023-04-19T16:33:13.059Z,13.20
2023-04-19T16:39:55.602Z,13.40
2023-04-19T16:46:38.014Z,13.20
2023-04-19T16:53:20.561Z,12.80
2023-04-19T17:00:05.680Z,12.50
2023-04-19T17:06:48.118Z,12.60
2023-04-19T17:13:30.433Z,12.90
2023-04-19T17:20:13.643Z,12.90
2023-04-19T17:26:56.723Z,12.80
2023-04-19T17:33:39.021Z,12.50
2023-04-19T17:40:21.810Z,12.20
2023-04-19T17:47:04.305Z,12.00
2023-04-19T17:53:47.283Z,11.90
2023-04-19T18:00:29.629Z,11.80
2023-04-19T18:07:12.052Z,11.60
2023-04-19T18:13:54.387Z,11.50
2023-04-19T18:20:36.722Z,11.40
2023-04-19T18:27:19.050Z,11.30
2023-04-19T18:34:02.092Z,11.20
2023-04-19T18:40:44.636Z,10.90
2023-04-19T18:47:27.436Z,10.70
2023-04-19T18:54:09.982Z,10.50
2023-04-19T19:00:52.474Z,10.30
2023-04-19T19:07:37.558Z,10.20
2023-04-19T19:14:23.320Z,10.10
2023-04-19T19:21:09.090Z,9.90
2023-04-19T19:34:53.938Z,9.60
2023-04-19T19:42:04.221Z,9.30
2023-04-19T19:48:51.975Z,9.00
2023-04-19T19:55:35.985Z,8.70
2023-04-19T20:02:21.905Z,8.40
2023-04-19T20:09:04.898Z,8.20
2023-04-19T20:15:48.258Z,7.90
2023-04-19T20:22:30.568Z,7.70
2023-04-19T20:29:12.865Z,7.70
2023-04-19T20:36:00.441Z,7.50
2023-04-19T20:42:43.421Z,5.70
2023-04-19T21:02:51.199Z,7.30
2023-04-19T21:09:33.625Z,7.10
2023-04-19T21:16:15.927Z,7.10
2023-04-19T21:22:58.392Z,6.80
2023-04-19T21:29:40.718Z,6.60
2023-04-19T21:36:23.015Z,6.10
2023-04-19T21:43:05.906Z,5.90
2023-04-19T21:49:48.241Z,5.80
2023-04-19T21:56:30.701Z,5.70
2023-04-19T22:03:13.232Z,5.70
2023-04-19T22:09:58.772Z,5.70
2023-04-19T22:16:42.084Z,5.70
2023-04-19T22:23:24.511Z,5.50
2023-04-19T22:30:07.649Z,5.40
2023-04-19T22:36:49.959Z,5.30
2023-04-19T22:43:33.034Z,5.10
2023-04-19T22:50:15.444Z,5.10
2023-04-19T22:56:58.309Z,4.90
2023-04-19T23:03:40.700Z,4.80
2023-04-19T23:10:24.237Z,4.80
2023-04-19T23:17:06.524Z,4.80
2023-04-19T23:23:50.581Z,4.90
2023-04-19T23:30:32.969Z,4.90
2023-04-19T23:37:15.314Z,4.70
2023-04-19T23:43:57.645Z,4.60
2023-04-19T23:50:40.022Z,4.50
2023-04-19T23:57:22.753Z,4.50
